Time;durP1;ratioP1;P1;durP2;ratioP2;P2;SDS_P1;SDS_P2;PMS_P1;PMS_P2;Temp;Humidity;BMP_temperature;BMP_pressure;BME280_temperature;BME280_humidity;BME280_pressure;Samples;Min_cycle;Max_cycle;Signal;HPM_P1;HPM_P2
2022/09/06 00:02:52;;;;;;;0.52;0.50;;;;;;;;;;10515466;28;20066;-80
2022/09/06 00:07:58;;;;;;;1.13;0.40;;;;;;;;;;10504419;28;20040;-80
2022/09/06 00:13:03;;;;;;;0.98;0.50;;;;;;;;;;10498404;28;20043;-81
2022/09/06 00:18:08;;;;;;;0.47;0.40;;;;;;;;;;10521105;28;20040;-79
2022/09/06 00:23:11;;;;;;;0.57;0.47;;;;;;;;;;10511167;28;20032;-80
2022/09/06 00:28:16;;;;;;;0.55;0.40;;;;;;;;;;10480341;28;20060;-79
2022/09/06 00:33:21;;;;;;;0.50;0.40;;;;;;;;;;10513935;28;20134;-80
2022/09/06 00:38:24;;;;;;;1.45;0.68;;;;;;;;;;10513497;28;20577;-80
2022/09/06 00:43:28;;;;;;;0.80;0.80;;;;;;;;;;10523651;28;20044;-80
2022/09/06 00:48:33;;;;;;;0.80;0.60;;;;;;;;;;10504625;28;20071;-80
2022/09/06 00:53:36;;;;;;;0.70;0.68;;;;;;;;;;10499261;28;20121;-80
2022/09/06 00:58:40;;;;;;;0.43;0.43;;;;;;;;;;10505518;28;20059;-80
2022/09/06 01:03:45;;;;;;;0.55;0.40;;;;;;;;;;10496458;28;20580;-80
2022/09/06 01:09:00;;;;;;;0.77;0.60;;;;;;;;;;10502661;28;20464;-79
2022/09/06 01:14:13;;;;;;;0.60;0.60;;;;;;;;;;10526318;28;20097;-80
2022/09/06 01:19:41;;;;;;;0.45;0.35;;;;;;;;;;10513159;28;20119;-80
2022/09/06 01:25:05;;;;;;;1.70;0.90;;;;;;;;;;10525632;28;20499;-79
2022/09/06 01:30:12;;;;;;;3.08;1.25;;;;;;;;;;10508993;28;20120;-81
2022/09/06 01:35:24;;;;;;;1.83;0.93;;;;;;;;;;10513618;28;20090;-80
2022/09/06 01:40:27;;;;;;;2.20;1.13;;;;;;;;;;10509047;28;20044;-79
2022/09/06 01:45:39;;;;;;;0.80;0.65;;;;;;;;;;10478689;28;20044;-79
2022/09/06 01:51:04;;;;;;;1.83;0.68;;;;;;;;;;10489726;28;20086;-80
2022/09/06 01:56:14;;;;;;;2.10;1.02;;;;;;;;;;10502498;28;20058;-80
2022/09/06 02:01:23;;;;;;;2.63;1.08;;;;;;;;;;10509178;28;20131;-79
2022/09/06 02:06:29;;;;;;;1.00;0.60;;;;;;;;;;10491310;28;20095;-79
2022/09/06 02:11:39;;;;;;;4.38;1.95;;;;;;;;;;10510232;28;20152;-79
2022/09/06 02:16:47;;;;;;;0.60;0.52;;;;;;;;;;10519139;28;20052;-79
2022/09/06 02:21:54;;;;;;;1.02;0.50;;;;;;;;;;10496574;28;20040;-79
2022/09/06 02:26:57;;;;;;;1.13;0.28;;;;;;;;;;10493642;28;20644;-79
2022/09/06 02:32:07;;;;;;;2.65;0.30;;;;;;;;;;10508711;28;20041;-80
2022/09/06 02:37:12;;;;;;;0.70;0.25;;;;;;;;;;10500389;28;20631;-81
2022/09/06 02:42:17;;;;;;;0.40;0.10;;;;;;;;;;10501981;28;20127;-81
2022/09/06 02:47:21;;;;;;;0.22;0.22;;;;;;;;;;10479754;28;20036;-80
2022/09/06 02:52:25;;;;;;;0.60;0.25;;;;;;;;;;10512558;28;20032;-80
2022/09/06 02:57:28;;;;;;;0.45;0.30;;;;;;;;;;10519040;28;20638;-80
2022/09/06 03:02:33;;;;;;;0.20;0.20;;;;;;;;;;10493666;28;20058;-80
2022/09/06 03:07:36;;;;;;;0.70;0.28;;;;;;;;;;10501838;28;20597;-79
2022/09/06 03:12:41;;;;;;;1.55;0.35;;;;;;;;;;10521658;28;20044;-79
2022/09/06 03:17:46;;;;;;;0.30;0.20;;;;;;;;;;10493792;28;20516;-80
2022/09/06 03:22:52;;;;;;;0.43;0.30;;;;;;;;;;10493189;28;20119;-79
2022/09/06 03:27:55;;;;;;;0.35;0.30;;;;;;;;;;10490270;28;20428;-80
2022/09/06 03:33:00;;;;;;;1.85;0.20;;;;;;;;;;10504700;28;20031;-79
2022/09/06 03:38:04;;;;;;;0.60;0.40;;;;;;;;;;10508967;28;20036;-80
2022/09/06 03:43:08;;;;;;;0.20;0.20;;;;;;;;;;10497253;28;20044;-79
2022/09/06 03:48:16;;;;;;;0.20;0.20;;;;;;;;;;10497194;28;20044;-80
2022/09/06 03:53:20;;;;;;;0.20;0.20;;;;;;;;;;10487905;28;20066;-80
2022/09/06 03:58:25;;;;;;;0.70;0.30;;;;;;;;;;10525785;28;20032;-80
2022/09/06 04:03:30;;;;;;;0.60;0.35;;;;;;;;;;10495419;28;20051;-79
2022/09/06 04:08:36;;;;;;;0.35;0.22;;;;;;;;;;10508807;28;20048;-80
2022/09/06 04:13:40;;;;;;;0.32;0.30;;;;;;;;;;10467718;28;20466;-80
2022/09/06 04:18:45;;;;;;;0.65;0.30;;;;;;;;;;10492677;28;20038;-80
2022/09/06 04:23:48;;;;;;;0.22;0.20;;;;;;;;;;10508712;28;20067;-80
2022/09/06 04:28:52;;;;;;;0.25;0.20;;;;;;;;;;10489506;28;20040;-80
2022/09/06 04:33:56;;;;;;;0.20;0.20;;;;;;;;;;10494790;28;20044;-80
2022/09/06 04:39:00;;;;;;;0.50;0.30;;;;;;;;;;10509188;28;20093;-79
2022/09/06 04:44:03;;;;;;;0.30;0.30;;;;;;;;;;10503806;28;20055;-80
2022/09/06 04:49:11;;;;;;;0.30;0.30;;;;;;;;;;10525930;28;20045;-79
2022/09/06 04:54:16;;;;;;;0.30;0.30;;;;;;;;;;10498990;28;20044;-80
2022/09/06 04:59:19;;;;;;;0.25;0.20;;;;;;;;;;10480569;28;20040;-80
2022/09/06 05:04:24;;;;;;;0.20;0.20;;;;;;;;;;10499047;28;20047;-80
2022/09/06 05:09:28;;;;;;;2.03;0.40;;;;;;;;;;10517585;28;20052;-80
2022/09/06 05:14:32;;;;;;;0.85;0.50;;;;;;;;;;10505814;28;20036;-79
2022/09/06 05:19:36;;;;;;;0.40;0.40;;;;;;;;;;10497823;28;20592;-80
2022/09/06 05:24:40;;;;;;;1.45;0.40;;;;;;;;;;10482470;28;20036;-80
2022/09/06 05:29:43;;;;;;;1.17;0.50;;;;;;;;;;10505995;28;20098;-79
2022/09/06 05:34:48;;;;;;;3.92;0.40;;;;;;;;;;10516527;28;20040;-79
2022/09/06 05:39:51;;;;;;;0.60;0.50;;;;;;;;;;10513901;28;20139;-80
2022/09/06 05:44:55;;;;;;;0.50;0.35;;;;;;;;;;10505487;28;20051;-80
2022/09/06 05:50:02;;;;;;;0.40;0.30;;;;;;;;;;10511170;28;20694;-80
2022/09/06 05:55:06;;;;;;;0.87;0.40;;;;;;;;;;10510161;28;20113;-80
2022/09/06 06:00:11;;;;;;;1.27;0.43;;;;;;;;;;10497132;28;20462;-80
2022/09/06 06:05:16;;;;;;;0.55;0.28;;;;;;;;;;10537940;28;20457;-80
2022/09/06 06:10:20;;;;;;;0.60;0.40;;;;;;;;;;10515844;28;20519;-81
2022/09/06 06:15:23;;;;;;;0.68;0.32;;;;;;;;;;10523023;28;20033;-80
2022/09/06 06:20:30;;;;;;;2.80;0.20;;;;;;;;;;10506255;28;20044;-79
2022/09/06 06:25:34;;;;;;;0.30;0.28;;;;;;;;;;10498427;28;20041;-79
2022/09/06 06:30:37;;;;;;;1.55;0.30;;;;;;;;;;10515663;28;20036;-81
2022/09/06 06:35:55;;;;;;;0.40;0.40;;;;;;;;;;10513013;28;20040;-80
2022/09/06 06:40:59;;;;;;;0.30;0.30;;;;;;;;;;10509940;28;20052;-80
2022/09/06 06:46:07;;;;;;;1.02;0.32;;;;;;;;;;10519301;28;20466;-81
2022/09/06 06:51:15;;;;;;;0.57;0.30;;;;;;;;;;10486526;28;20051;-80
2022/09/06 06:56:21;;;;;;;0.20;0.20;;;;;;;;;;10508897;28;20052;-80
2022/09/06 07:01:26;;;;;;;;;;;;;;;;;;10525187;28;20051;-80
2022/09/06 07:06:31;;;;;;;0.22;0.22;;;;;;;;;;10497220;28;19920;-80
2022/09/06 07:11:54;;;;;;;0.40;0.30;;;;;;;;;;10522799;28;20044;-80
2022/09/06 07:16:58;;;;;;;0.22;0.22;;;;;;;;;;10503665;28;20516;-79
2022/09/06 07:22:03;;;;;;;0.38;0.22;;;;;;;;;;10513256;28;20043;-80
2022/09/06 07:27:07;;;;;;;0.20;0.20;;;;;;;;;;10521516;28;20051;-80
2022/09/06 07:32:30;;;;;;;0.35;0.35;;;;;;;;;;10503920;28;20079;-80
2022/09/06 07:37:35;;;;;;;0.20;0.20;;;;;;;;;;10520743;28;20047;-79
2022/09/06 07:42:39;;;;;;;0.25;0.20;;;;;;;;;;10489997;28;20040;-80
2022/09/06 07:47:42;;;;;;;0.25;0.20;;;;;;;;;;10502547;28;20063;-80
2022/09/06 07:53:06;;;;;;;0.68;0.20;;;;;;;;;;10496580;28;20075;-80
2022/09/06 07:58:09;;;;;;;0.20;0.20;;;;;;;;;;10507325;28;20131;-79
2022/09/06 08:03:13;;;;;;;0.65;0.20;;;;;;;;;;10497526;28;20035;-80
2022/09/06 08:08:18;;;;;;;0.10;0.10;;;;;;;;;;10515781;28;20605;-82
2022/09/06 08:13:42;;;;;;;0.98;0.20;;;;;;;;;;10502339;28;20085;-80
2022/09/06 08:18:45;;;;;;;0.20;0.20;;;;;;;;;;10490599;28;20127;-80
2022/09/06 08:23:51;;;;;;;0.10;0.10;;;;;;;;;;10523556;28;20048;-80
2022/09/06 08:28:56;;;;;;;0.30;0.30;;;;;;;;;;10478837;28;20454;-80
2022/09/06 08:34:00;;;;;;;0.93;0.20;;;;;;;;;;10476499;28;20389;-79
2022/09/06 08:39:09;;;;;;;0.55;0.20;;;;;;;;;;10527914;28;20048;-80
2022/09/06 08:44:15;;;;;;;1.10;0.60;;;;;;;;;;10514539;28;20059;-80
2022/09/06 08:49:42;;;;;;;0.43;0.30;;;;;;;;;;10482520;28;20062;-80
2022/09/06 08:54:53;;;;;;;0.10;0.10;;;;;;;;;;10497291;28;20048;-80
2022/09/06 09:00:00;;;;;;;0.60;0.20;;;;;;;;;;10510675;28;20163;-80
2022/09/06 09:05:11;;;;;;;0.43;0.30;;;;;;;;;;10497856;28;20063;-80
2022/09/06 09:10:21;;;;;;;1.10;0.20;;;;;;;;;;10497516;28;20041;-80
2022/09/06 09:15:24;;;;;;;0.20;0.20;;;;;;;;;;10495906;28;20063;-80
2022/09/06 09:20:27;;;;;;;0.73;0.45;;;;;;;;;;10510559;28;20063;-80
2022/09/06 09:25:34;;;;;;;0.30;0.30;;;;;;;;;;10512625;28;20063;-79
2022/09/06 09:30:47;;;;;;;0.68;0.40;;;;;;;;;;10505920;28;20561;-80
2022/09/06 09:35:51;;;;;;;0.50;0.40;;;;;;;;;;10496678;28;20090;-80
2022/09/06 09:40:57;;;;;;;0.75;0.30;;;;;;;;;;10503915;28;20055;-80
2022/09/06 09:46:14;;;;;;;0.90;0.30;;;;;;;;;;10521093;28;20040;-80
2022/09/06 09:51:24;;;;;;;0.40;0.30;;;;;;;;;;10516104;28;20559;-80
2022/09/06 09:56:36;;;;;;;0.30;0.30;;;;;;;;;;10509876;28;20051;-80
2022/09/06 10:01:39;;;;;;;0.38;0.30;;;;;;;;;;10477652;28;20044;-80
2022/09/06 10:06:43;;;;;;;0.52;0.38;;;;;;;;;;10494503;28;20135;-80
2022/09/06 10:12:08;;;;;;;1.15;0.20;;;;;;;;;;10519932;28;20050;-80
2022/09/06 10:17:27;;;;;;;0.77;0.60;;;;;;;;;;10509076;28;20028;-80
2022/09/06 10:22:32;;;;;;;0.17;0.17;;;;;;;;;;10497468;28;20119;-80
2022/09/06 10:27:40;;;;;;;0.57;0.57;;;;;;;;;;10508216;28;20040;-81
2022/09/06 10:32:55;;;;;;;1.85;0.40;;;;;;;;;;10515665;28;20218;-79
2022/09/06 10:38:27;;;;;;;0.45;0.28;;;;;;;;;;10522165;28;20045;-80
2022/09/06 10:43:39;;;;;;;1.10;0.30;;;;;;;;;;10479543;28;1030343;-80
2022/09/06 10:48:45;;;;;;;0.60;0.40;;;;;;;;;;10512801;28;20688;-79
2022/09/06 10:53:52;;;;;;;0.68;0.40;;;;;;;;;;10507223;28;20071;-80
2022/09/06 10:59:03;;;;;;;0.30;0.30;;;;;;;;;;10518840;28;20063;-80
2022/09/06 11:04:32;;;;;;;0.95;0.47;;;;;;;;;;10518578;28;20040;-79
2022/09/06 11:09:41;;;;;;;0.52;0.30;;;;;;;;;;10535289;28;20044;-80
2022/09/06 11:14:46;;;;;;;1.77;0.32;;;;;;;;;;10527297;28;20040;-80
2022/09/06 11:19:54;;;;;;;3.05;0.50;;;;;;;;;;10515360;28;20054;-81
2022/09/06 11:25:26;;;;;;;0.88;0.50;;;;;;;;;;10519067;28;20049;-79
2022/09/06 11:30:30;;;;;;;0.82;0.30;;;;;;;;;;10504763;28;20134;-80
2022/09/06 11:35:34;;;;;;;0.43;0.22;;;;;;;;;;10535158;28;20139;-80
2022/09/06 11:40:41;;;;;;;1.02;0.60;;;;;;;;;;10517831;28;20100;-80
2022/09/06 11:45:48;;;;;;;2.28;0.40;;;;;;;;;;10508179;28;20059;-78
2022/09/06 11:51:05;;;;;;;1.77;0.50;;;;;;;;;;10522268;28;20076;-76
2022/09/06 11:56:25;;;;;;;0.40;0.30;;;;;;;;;;10506826;28;20115;-77
2022/09/06 12:01:40;;;;;;;1.48;0.93;;;;;;;;;;10532637;28;20698;-77
2022/09/06 12:07:07;;;;;;;1.00;0.40;;;;;;;;;;10524094;28;20123;-78
2022/09/06 12:12:11;;;;;;;0.32;0.20;;;;;;;;;;10523972;28;20166;-78
2022/09/06 12:17:21;;;;;;;0.70;0.70;;;;;;;;;;10523689;28;20044;-77
2022/09/06 12:23:01;;;;;;;0.40;0.30;;;;;;;;;;10523456;28;20040;-78
2022/09/06 12:28:06;;;;;;;0.80;0.50;;;;;;;;;;10518547;28;20860;-78
2022/09/06 12:33:17;;;;;;;0.43;0.30;;;;;;;;;;10514872;28;20078;-77
2022/09/06 12:38:24;;;;;;;0.30;0.30;;;;;;;;;;10513449;28;20043;-77
2022/09/06 12:43:29;;;;;;;0.50;0.40;;;;;;;;;;10531010;28;20063;-78
2022/09/06 12:48:40;;;;;;;1.40;0.50;;;;;;;;;;10512880;28;20133;-77
2022/09/06 12:53:50;;;;;;;1.75;0.50;;;;;;;;;;10496989;28;20036;-77
2022/09/06 12:59:09;;;;;;;0.80;0.43;;;;;;;;;;10506599;28;20507;-77
2022/09/06 13:04:18;;;;;;;2.30;0.40;;;;;;;;;;10512245;28;20507;-76
2022/09/06 13:09:25;;;;;;;1.52;0.93;;;;;;;;;;10515428;28;20054;-78
2022/09/06 13:14:30;;;;;;;1.67;0.52;;;;;;;;;;10523728;28;20044;-77
2022/09/06 13:19:38;;;;;;;1.73;0.68;;;;;;;;;;10523565;28;20032;-77
2022/09/06 13:24:45;;;;;;;0.70;0.40;;;;;;;;;;10500099;28;20657;-77
2022/09/06 13:29:55;;;;;;;0.47;0.20;;;;;;;;;;10525032;28;20450;-78
2022/09/06 13:35:01;;;;;;;0.38;0.28;;;;;;;;;;10521476;28;20139;-77
2022/09/06 13:40:40;;;;;;;1.15;0.30;;;;;;;;;;10512689;28;20134;-77
2022/09/06 13:46:06;;;;;;;0.85;0.38;;;;;;;;;;10496432;28;20036;-77
2022/09/06 13:51:11;;;;;;;0.80;0.28;;;;;;;;;;10502562;28;20561;-78
2022/09/06 13:56:15;;;;;;;0.88;0.40;;;;;;;;;;10497642;28;20063;-78
2022/09/06 14:01:19;;;;;;;1.23;0.40;;;;;;;;;;10504398;28;20040;-77
2022/09/06 14:06:23;;;;;;;0.40;0.30;;;;;;;;;;10528301;28;20059;-77
2022/09/06 14:11:27;;;;;;;1.70;0.50;;;;;;;;;;10510486;28;20052;-77
2022/09/06 14:16:31;;;;;;;1.35;0.40;;;;;;;;;;10505357;28;20294;-77
2022/09/06 14:21:36;;;;;;;1.58;0.65;;;;;;;;;;10491670;28;20122;-78
2022/09/06 14:26:39;;;;;;;0.82;0.50;;;;;;;;;;10527705;28;20063;-77
2022/09/06 14:31:42;;;;;;;1.20;0.40;;;;;;;;;;10520534;28;20048;-77
2022/09/06 14:36:47;;;;;;;1.63;0.45;;;;;;;;;;10510439;28;20127;-77
2022/09/06 14:41:50;;;;;;;0.60;0.30;;;;;;;;;;10498033;28;20099;-77
2022/09/06 14:46:54;;;;;;;1.80;0.50;;;;;;;;;;10500994;28;20124;-78
2022/09/06 14:51:58;;;;;;;2.60;0.50;;;;;;;;;;10519496;28;20142;-77
2022/09/06 14:57:02;;;;;;;0.52;0.30;;;;;;;;;;10531621;28;20044;-77
2022/09/06 15:02:05;;;;;;;1.55;0.63;;;;;;;;;;10512953;28;20028;-77
2022/09/06 15:07:10;;;;;;;0.20;0.20;;;;;;;;;;10526471;28;20040;-78
2022/09/06 15:12:13;;;;;;;3.17;0.57;;;;;;;;;;10508587;28;20454;-76
2022/09/06 15:17:16;;;;;;;2.00;0.50;;;;;;;;;;10526511;28;20123;-76
2022/09/06 15:22:21;;;;;;;1.08;0.52;;;;;;;;;;10501759;28;20046;-78
2022/09/06 15:27:25;;;;;;;2.00;0.40;;;;;;;;;;10518543;28;20060;-77
2022/09/06 15:32:28;;;;;;;1.15;0.70;;;;;;;;;;10506629;28;20044;-78
2022/09/06 15:37:32;;;;;;;2.63;0.60;;;;;;;;;;10525335;28;20238;-77
2022/09/06 15:42:36;;;;;;;1.30;0.47;;;;;;;;;;10506971;28;20054;-75
2022/09/06 15:47:40;;;;;;;2.50;0.50;;;;;;;;;;10524545;28;20119;-75
2022/09/06 15:52:44;;;;;;;1.35;0.60;;;;;;;;;;10504429;28;20135;-75
2022/09/06 15:57:48;;;;;;;4.05;1.27;;;;;;;;;;10525956;28;20546;-76
2022/09/06 16:02:52;;;;;;;1.98;0.77;;;;;;;;;;10498315;28;20124;-77
2022/09/06 16:07:56;;;;;;;1.63;0.52;;;;;;;;;;10532529;28;20040;-76
2022/09/06 16:13:00;;;;;;;3.10;0.80;;;;;;;;;;10520942;28;20051;-76
2022/09/06 16:18:04;;;;;;;1.48;0.60;;;;;;;;;;10526750;28;20478;-76
2022/09/06 16:23:08;;;;;;;0.98;0.40;;;;;;;;;;10525262;28;20040;-77
2022/09/06 16:28:12;;;;;;;0.95;0.40;;;;;;;;;;10528533;28;20039;-76
2022/09/06 16:33:15;;;;;;;1.00;0.55;;;;;;;;;;10514805;28;20646;-78
2022/09/06 16:38:20;;;;;;;1.30;0.50;;;;;;;;;;10530212;28;20143;-78
2022/09/06 16:43:23;;;;;;;0.63;0.43;;;;;;;;;;10514488;28;20093;-79
2022/09/06 16:48:27;;;;;;;1.17;0.40;;;;;;;;;;10504551;28;20044;-79
2022/09/06 16:53:31;;;;;;;1.42;0.43;;;;;;;;;;10508383;28;20085;-79
2022/09/06 16:58:35;;;;;;;0.55;0.20;;;;;;;;;;10513810;28;20119;-78
2022/09/06 17:03:39;;;;;;;1.73;0.40;;;;;;;;;;10515100;28;20039;-77
2022/09/06 17:08:44;;;;;;;1.25;0.40;;;;;;;;;;10529629;28;20630;-78
2022/09/06 17:13:48;;;;;;;2.35;0.43;;;;;;;;;;10510613;28;20119;-78
2022/09/06 17:18:52;;;;;;;1.13;0.43;;;;;;;;;;10521321;28;20127;-78
2022/09/06 17:23:58;;;;;;;0.85;0.50;;;;;;;;;;10495803;28;20510;-78
2022/09/06 17:29:02;;;;;;;0.63;0.40;;;;;;;;;;10517956;28;20116;-77
2022/09/06 17:34:06;;;;;;;0.82;0.40;;;;;;;;;;10526010;28;20051;-78
2022/09/06 17:39:14;;;;;;;1.23;0.63;;;;;;;;;;10486661;28;20047;-78
2022/09/06 17:44:19;;;;;;;0.82;0.60;;;;;;;;;;10492395;28;20118;-78
2022/09/06 17:49:23;;;;;;;;;;;;;;;;;;10511904;28;20407;-80
2022/09/06 17:54:28;;;;;;;1.25;0.50;;;;;;;;;;10535362;28;19920;-78
2022/09/06 17:59:31;;;;;;;1.33;0.52;;;;;;;;;;10529459;28;20048;-78
2022/09/06 18:04:37;;;;;;;0.35;0.35;;;;;;;;;;10486803;28;20508;-79
2022/09/06 18:09:42;;;;;;;1.45;0.43;;;;;;;;;;10536984;28;20063;-78
2022/09/06 18:14:45;;;;;;;0.60;0.60;;;;;;;;;;10510898;28;20036;-79
2022/09/06 18:19:49;;;;;;;1.42;0.60;;;;;;;;;;10518183;28;20131;-78
2022/09/06 18:24:53;;;;;;;1.95;0.50;;;;;;;;;;10508208;28;20056;-78
2022/09/06 18:29:59;;;;;;;0.40;0.30;;;;;;;;;;10536222;28;20051;-78
2022/09/06 18:35:03;;;;;;;0.90;0.40;;;;;;;;;;10527932;28;20059;-78
2022/09/06 18:40:09;;;;;;;1.27;0.50;;;;;;;;;;10534351;28;20416;-80
2022/09/06 18:45:12;;;;;;;0.70;0.70;;;;;;;;;;10518605;28;20059;-79
2022/09/06 18:50:16;;;;;;;1.67;0.50;;;;;;;;;;10509251;28;20426;-78
2022/09/06 18:55:20;;;;;;;0.77;0.35;;;;;;;;;;10498656;28;20411;-79
2022/09/06 19:00:24;;;;;;;1.35;0.52;;;;;;;;;;10510452;28;20576;-79
2022/09/06 19:05:27;;;;;;;1.95;0.43;;;;;;;;;;10515880;28;20123;-79
2022/09/06 19:10:32;;;;;;;0.40;0.38;;;;;;;;;;10484108;28;20135;-78
2022/09/06 19:15:37;;;;;;;0.35;0.30;;;;;;;;;;10518202;28;20079;-79
2022/09/06 19:20:40;;;;;;;1.38;0.50;;;;;;;;;;10515863;28;20147;-79
2022/09/06 19:25:45;;;;;;;1.38;0.40;;;;;;;;;;10515440;28;20064;-79
2022/09/06 19:30:48;;;;;;;0.40;0.35;;;;;;;;;;10510948;28;20728;-78
2022/09/06 19:35:54;;;;;;;1.38;0.35;;;;;;;;;;10506957;28;20621;-78
2022/09/06 19:41:12;;;;;;;1.38;0.43;;;;;;;;;;10508335;28;20041;-79
2022/09/06 19:46:16;;;;;;;2.00;0.40;;;;;;;;;;10496187;28;20455;-79
2022/09/06 19:51:20;;;;;;;0.50;0.40;;;;;;;;;;10481775;28;20047;-78
2022/09/06 19:56:28;;;;;;;1.33;0.60;;;;;;;;;;10507303;28;20067;-79
2022/09/06 20:01:33;;;;;;;1.02;0.45;;;;;;;;;;10532582;28;20649;-79
2022/09/06 20:06:38;;;;;;;0.77;0.40;;;;;;;;;;10532367;28;20476;-79
2022/09/06 20:11:42;;;;;;;1.30;0.50;;;;;;;;;;10490270;28;20044;-78
2022/09/06 20:16:46;;;;;;;0.45;0.40;;;;;;;;;;10507227;28;20062;-79
2022/09/06 20:21:49;;;;;;;0.88;0.43;;;;;;;;;;10489010;28;20048;-78
2022/09/06 20:26:54;;;;;;;1.10;0.50;;;;;;;;;;10498060;28;20465;-78
2022/09/06 20:31:57;;;;;;;0.47;0.47;;;;;;;;;;10494196;28;20132;-78
2022/09/06 20:37:00;;;;;;;0.70;0.50;;;;;;;;;;10493663;28;20074;-79
2022/09/06 20:42:05;;;;;;;0.45;0.43;;;;;;;;;;10492938;28;20119;-79
2022/09/06 20:47:09;;;;;;;1.30;0.70;;;;;;;;;;10506055;28;20136;-79
2022/09/06 20:52:12;;;;;;;0.50;0.40;;;;;;;;;;10496332;28;20059;-78
2022/09/06 20:57:16;;;;;;;0.60;0.47;;;;;;;;;;10522648;28;20145;-79
2022/09/06 21:02:20;;;;;;;1.80;0.50;;;;;;;;;;10513943;28;20162;-78
2022/09/06 21:07:23;;;;;;;1.50;0.52;;;;;;;;;;10522458;28;20620;-79
2022/09/06 21:12:28;;;;;;;2.88;0.50;;;;;;;;;;10498568;28;20068;-79
2022/09/06 21:17:31;;;;;;;0.75;0.55;;;;;;;;;;10497437;28;20051;-78
2022/09/06 21:22:34;;;;;;;1.52;0.70;;;;;;;;;;10504062;28;20044;-79
2022/09/06 21:27:39;;;;;;;0.50;0.50;;;;;;;;;;10512452;28;20167;-78
2022/09/06 21:32:42;;;;;;;0.30;0.30;;;;;;;;;;10471828;28;20055;-79
2022/09/06 21:37:46;;;;;;;0.43;0.43;;;;;;;;;;10495587;28;20063;-79
2022/09/06 21:42:50;;;;;;;0.73;0.63;;;;;;;;;;10504175;28;20087;-78
2022/09/06 21:47:54;;;;;;;1.88;0.55;;;;;;;;;;10519086;28;20135;-79
2022/09/06 21:52:57;;;;;;;0.93;0.40;;;;;;;;;;10503797;28;20056;-80
2022/09/06 21:58:02;;;;;;;0.55;0.35;;;;;;;;;;10509784;28;20657;-79
2022/09/06 22:03:06;;;;;;;0.70;0.38;;;;;;;;;;10496904;28;20120;-79
2022/09/06 22:08:09;;;;;;;1.73;0.43;;;;;;;;;;10500450;28;20048;-79
2022/09/06 22:13:14;;;;;;;1.95;0.30;;;;;;;;;;10507051;28;20040;-79
2022/09/06 22:18:17;;;;;;;0.70;0.50;;;;;;;;;;10517884;28;20051;-79
2022/09/06 22:23:20;;;;;;;0.50;0.40;;;;;;;;;;10511601;28;20472;-79
2022/09/06 22:28:25;;;;;;;0.40;0.38;;;;;;;;;;10512997;28;20143;-80
2022/09/06 22:33:29;;;;;;;1.60;0.50;;;;;;;;;;10511246;28;20122;-78
2022/09/06 22:38:33;;;;;;;0.70;0.50;;;;;;;;;;10494516;28;20132;-79
2022/09/06 22:43:38;;;;;;;0.50;0.40;;;;;;;;;;10485027;28;20564;-79
2022/09/06 22:48:42;;;;;;;0.63;0.50;;;;;;;;;;10476813;28;20076;-79
2022/09/06 22:53:45;;;;;;;1.15;0.50;;;;;;;;;;10505325;28;20048;-79
2022/09/06 22:58:50;;;;;;;1.00;0.40;;;;;;;;;;10529694;28;20050;-79
2022/09/06 23:03:53;;;;;;;0.40;0.40;;;;;;;;;;10482059;28;20128;-79
2022/09/06 23:08:56;;;;;;;0.93;0.60;;;;;;;;;;10481484;28;20127;-79
2022/09/06 23:14:01;;;;;;;0.55;0.45;;;;;;;;;;10475790;28;20045;-79
2022/09/06 23:19:05;;;;;;;1.98;0.60;;;;;;;;;;10517207;28;20036;-79
2022/09/06 23:24:08;;;;;;;1.30;0.45;;;;;;;;;;10500763;28;20071;-79
2022/09/06 23:29:13;;;;;;;0.45;0.45;;;;;;;;;;10478525;28;20119;-79
2022/09/06 23:34:16;;;;;;;0.60;0.40;;;;;;;;;;10474743;28;20068;-79
2022/09/06 23:39:20;;;;;;;0.57;0.40;;;;;;;;;;10515352;28;20048;-79
2022/09/06 23:44:24;;;;;;;0.88;0.50;;;;;;;;;;10519011;28;20124;-80
2022/09/06 23:49:27;;;;;;;1.15;0.47;;;;;;;;;;10499622;28;20092;-79
2022/09/06 23:54:31;;;;;;;2.28;0.40;;;;;;;;;;10493251;28;20405;-79
2022/09/06 23:59:35;;;;;;;2.20;0.55;;;;;;;;;;10508285;28;20044;-80
